Time;durP1;ratioP1;P1;durP2;ratioP2;P2;SDS_P1;SDS_P2;PMS_P1;PMS_P2;Temp;Humidity;BMP_temperature;BMP_pressure;BME280_temperature;BME280_humidity;BME280_pressure;Samples;Min_cycle;Max_cycle;Signal;HPM_P1;HPM_P2
2021/03/04 00:01:14;;;;;;;11.77;10.57;;;7.70;99.90;;;;;;5104866;28;20211;-81
2021/03/04 00:03:41;;;;;;;11.60;10.40;;;7.70;99.90;;;;;;5086544;28;20586;-82
2021/03/04 00:06:08;;;;;;;11.93;10.70;;;7.80;99.90;;;;;;5105268;28;20199;-81
2021/03/04 00:08:34;;;;;;;13.33;10.83;;;7.80;99.90;;;;;;5082196;28;20218;-81
2021/03/04 00:11:00;;;;;;;12.10;10.90;;;7.90;99.90;;;;;;5081636;28;20211;-82
2021/03/04 00:13:27;;;;;;;11.70;10.37;;;7.90;99.90;;;;;;5085413;28;20214;-82
2021/03/04 00:15:54;;;;;;;11.57;10.47;;;7.90;99.90;;;;;;5103190;28;20220;-82
2021/03/04 00:18:20;;;;;;;14.03;11.47;;;7.90;99.90;;;;;;5103419;28;20195;-82
2021/03/04 00:20:49;;;;;;;12.80;10.77;;;7.90;99.90;;;;;;5084907;28;20571;-81
2021/03/04 00:23:15;;;;;;;14.03;11.03;;;7.90;99.90;;;;;;5088799;28;20655;-82
2021/03/04 00:25:42;;;;;;;11.57;10.37;;;7.90;99.90;;;;;;5097731;28;20201;-82
2021/03/04 00:28:08;;;;;;;12.70;10.43;;;8.00;99.90;;;;;;5103724;28;20715;-82
2021/03/04 00:30:34;;;;;;;14.17;11.60;;;7.90;99.90;;;;;;5086098;28;20534;-82
2021/03/04 00:33:01;;;;;;;14.90;12.30;;;7.90;99.90;;;;;;5084985;28;20195;-81
2021/03/04 00:35:27;;;;;;;13.13;11.80;;;7.90;99.90;;;;;;5086279;28;20207;-81
2021/03/04 00:37:54;;;;;;;13.20;11.03;;;7.90;99.90;;;;;;5102532;28;20192;-82
2021/03/04 00:40:22;;;;;;;12.17;10.37;;;8.00;99.90;;;;;;5098089;28;20215;-81
2021/03/04 00:42:49;;;;;;;12.10;10.83;;;8.00;99.90;;;;;;5082171;28;20225;-81
2021/03/04 00:45:18;;;;;;;12.87;11.60;;;8.00;99.90;;;;;;5085938;28;20668;-82
2021/03/04 00:47:44;;;;;;;11.70;10.50;;;7.90;99.90;;;;;;5085532;28;20212;-82
2021/03/04 00:50:12;;;;;;;11.87;10.67;;;7.90;99.90;;;;;;5084964;28;20567;-81
2021/03/04 00:52:38;;;;;;;13.03;11.17;;;7.90;99.90;;;;;;5103739;28;20215;-82
2021/03/04 00:55:07;;;;;;;11.83;10.67;;;7.80;99.90;;;;;;5104234;28;20193;-81
2021/03/04 00:57:33;;;;;;;12.43;11.17;;;7.80;99.90;;;;;;5099933;28;20682;-81
2021/03/04 00:59:59;;;;;;;14.33;12.83;;;7.80;99.90;;;;;;5098841;28;20570;-81
2021/03/04 01:02:26;;;;;;;13.80;11.73;;;7.80;99.90;;;;;;5087463;28;20216;-81
2021/03/04 01:04:52;;;;;;;13.70;12.23;;;7.80;99.90;;;;;;5103267;28;20182;-81
2021/03/04 01:07:18;;;;;;;14.53;11.83;;;7.70;99.90;;;;;;5104740;28;20211;-81
2021/03/04 01:09:45;;;;;;;12.87;11.47;;;7.70;99.90;;;;;;5104258;28;20193;-82
2021/03/04 01:12:12;;;;;;;13.40;11.87;;;7.70;99.90;;;;;;5087188;28;20225;-80
2021/03/04 01:14:38;;;;;;;14.33;12.07;;;7.70;99.90;;;;;;5100912;28;20198;-81
2021/03/04 01:17:08;;;;;;;14.43;12.30;;;7.60;99.90;;;;;;5099353;28;20190;-82
2021/03/04 01:19:34;;;;;;;14.93;12.47;;;7.60;99.90;;;;;;5102918;28;20190;-82
2021/03/04 01:22:00;;;;;;;14.83;12.20;;;7.60;99.90;;;;;;5083755;28;20234;-81
2021/03/04 01:24:27;;;;;;;13.73;12.33;;;7.60;99.90;;;;;;5084920;28;20196;-81
2021/03/04 01:26:53;;;;;;;17.43;13.00;;;7.60;99.90;;;;;;5082570;28;20236;-81
2021/03/04 01:29:20;;;;;;;13.60;11.80;;;7.60;99.90;;;;;;5097063;28;20206;-81
2021/03/04 01:31:46;;;;;;;15.57;12.37;;;7.50;99.90;;;;;;5082822;28;20218;-81
2021/03/04 01:34:13;;;;;;;18.03;13.37;;;7.60;99.90;;;;;;5082743;28;20209;-82
2021/03/04 01:36:39;;;;;;;15.53;13.07;;;7.50;99.90;;;;;;5103010;28;20182;-81
2021/03/04 01:39:06;;;;;;;13.57;12.17;;;7.50;99.90;;;;;;5083981;28;20191;-81
2021/03/04 01:41:33;;;;;;;13.27;11.90;;;7.50;99.90;;;;;;5085288;28;20297;-81
2021/03/04 01:43:59;;;;;;;18.83;14.27;;;7.50;99.90;;;;;;5102686;28;20720;-81
2021/03/04 01:46:26;;;;;;;14.83;13.27;;;7.50;99.90;;;;;;5079697;28;20199;-81
2021/03/04 01:48:53;;;;;;;17.57;13.13;;;7.50;99.90;;;;;;5098717;28;20690;-81
2021/03/04 01:51:20;;;;;;;14.10;12.60;;;7.50;99.90;;;;;;5083366;28;20223;-81
2021/03/04 01:53:47;;;;;;;16.97;14.33;;;7.50;99.90;;;;;;5083360;28;20205;-82
2021/03/04 01:56:13;;;;;;;16.20;14.50;;;7.50;99.90;;;;;;5102519;28;20195;-81
2021/03/04 01:58:40;;;;;;;18.60;15.03;;;7.50;99.90;;;;;;5103712;28;20193;-81
2021/03/04 02:04:50;;;;;;;17.27;14.23;;;7.50;99.90;;;;;;5100567;28;20669;-81
2021/03/04 02:07:22;;;;;;;20.13;14.97;;;7.50;99.90;;;;;;5079042;28;20225;-81
2021/03/04 02:09:56;;;;;;;19.70;15.63;;;7.40;99.90;;;;;;5098571;28;20269;-81
2021/03/04 02:12:29;;;;;;;17.63;14.73;;;7.40;99.90;;;;;;5086854;28;20218;-81
2021/03/04 02:15:02;;;;;;;18.30;15.10;;;7.40;99.90;;;;;;5083401;28;20211;-81
2021/03/04 02:17:32;;;;;;;17.57;14.20;;;7.40;99.90;;;;;;5104133;28;20182;-81
2021/03/04 02:20:04;;;;;;;21.40;16.23;;;7.30;99.90;;;;;;5082973;28;20202;-82
2021/03/04 02:22:46;;;;;;;16.07;13.83;;;7.30;99.90;;;;;;5082033;28;20689;-81
2021/03/04 02:25:14;;;;;;;18.07;14.90;;;7.30;99.90;;;;;;5101909;28;20194;-81
2021/03/04 02:27:42;;;;;;;19.57;14.93;;;7.30;99.90;;;;;;5079550;28;20206;-79
2021/03/04 02:30:12;;;;;;;15.97;13.43;;;7.20;99.90;;;;;;5103514;28;20195;-81
2021/03/04 02:32:43;;;;;;;19.37;15.27;;;7.20;99.90;;;;;;5101418;28;20214;-81
2021/03/04 02:35:16;;;;;;;18.57;14.43;;;7.20;99.90;;;;;;5076215;28;20204;-81
2021/03/04 02:37:47;;;;;;;17.53;15.67;;;7.20;99.90;;;;;;5083842;28;20274;-81
2021/03/04 02:40:15;;;;;;;18.97;15.20;;;7.20;99.90;;;;;;5084122;28;20581;-81
2021/03/04 02:42:45;;;;;;;17.43;14.43;;;7.20;99.90;;;;;;5077415;28;20214;-82
2021/03/04 02:45:13;;;;;;;21.83;15.87;;;7.10;99.90;;;;;;5079324;28;20194;-81
2021/03/04 02:47:40;;;;;;;18.40;15.70;;;7.10;99.90;;;;;;5086340;28;20244;-81
2021/03/04 02:50:08;;;;;;;18.43;15.90;;;7.00;99.90;;;;;;5090044;28;20202;-81
2021/03/04 02:52:36;;;;;;;17.07;14.60;;;7.00;99.90;;;;;;5082271;28;20214;-79
2021/03/04 02:55:04;;;;;;;19.57;16.00;;;7.00;99.90;;;;;;5082041;28;20255;-82
2021/03/04 02:57:31;;;;;;;25.63;17.90;;;7.00;99.90;;;;;;5090237;28;20202;-82
2021/03/04 02:59:59;;;;;;;20.40;15.77;;;7.00;99.90;;;;;;5085168;28;20625;-79
2021/03/04 03:02:27;;;;;;;18.47;15.70;;;7.00;99.90;;;;;;5080231;28;20217;-81
2021/03/04 03:04:54;;;;;;;16.87;14.33;;;7.00;99.90;;;;;;5099441;28;20190;-81
2021/03/04 03:07:22;;;;;;;20.43;15.93;;;7.00;99.90;;;;;;5084501;28;20600;-81
2021/03/04 03:09:48;;;;;;;21.63;17.37;;;7.00;99.90;;;;;;5104140;28;20196;-81
2021/03/04 03:12:17;;;;;;;19.07;14.33;;;7.00;99.90;;;;;;5102945;28;20594;-82
2021/03/04 03:14:43;;;;;;;16.60;14.80;;;7.10;99.90;;;;;;5099348;28;20242;-81
2021/03/04 03:17:10;;;;;;;18.00;16.20;;;7.10;99.90;;;;;;5100252;28;20189;-81
2021/03/04 03:19:37;;;;;;;17.43;14.57;;;7.10;99.90;;;;;;5107065;28;20570;-81
2021/03/04 03:22:03;;;;;;;15.43;13.87;;;7.10;99.90;;;;;;5088603;28;20223;-82
2021/03/04 03:24:30;;;;;;;19.50;16.17;;;7.10;99.90;;;;;;5080461;28;20583;-81
2021/03/04 03:26:56;;;;;;;17.73;15.80;;;7.10;99.90;;;;;;5089554;28;20194;-81
2021/03/04 03:29:22;;;;;;;16.33;14.30;;;7.10;99.90;;;;;;5085647;28;20199;-81
2021/03/04 03:31:51;;;;;;;15.97;13.67;;;7.10;99.90;;;;;;5104830;28;20217;-81
2021/03/04 03:34:18;;;;;;;20.50;16.97;;;7.10;99.90;;;;;;5089261;28;20195;-79
2021/03/04 03:36:46;;;;;;;18.40;15.83;;;7.20;99.90;;;;;;5088467;28;20202;-80
2021/03/04 03:39:13;;;;;;;18.13;14.97;;;7.20;99.90;;;;;;5115425;28;20678;-80
2021/03/04 03:41:42;;;;;;;16.70;14.47;;;7.20;99.90;;;;;;5107172;28;20256;-80
2021/03/04 03:44:10;;;;;;;17.00;15.20;;;7.10;99.90;;;;;;5089905;28;20247;-80
2021/03/04 03:46:37;;;;;;;15.97;14.03;;;7.10;99.90;;;;;;5106729;28;20240;-77
2021/03/04 03:49:05;;;;;;;15.43;13.70;;;7.10;99.90;;;;;;5079687;28;20608;-79
2021/03/04 03:51:34;;;;;;;17.43;15.10;;;7.00;99.90;;;;;;5084423;28;20634;-79
2021/03/04 03:54:03;;;;;;;17.50;15.00;;;7.00;99.90;;;;;;5108701;28;20193;-78
2021/03/04 03:56:30;;;;;;;16.40;13.97;;;6.90;99.90;;;;;;5097195;28;20194;-79
2021/03/04 03:58:58;;;;;;;16.03;13.97;;;6.90;99.90;;;;;;5100833;28;20197;-79
2021/03/04 04:01:27;;;;;;;17.03;14.03;;;6.90;99.90;;;;;;5083852;28;20263;-79
2021/03/04 04:03:55;;;;;;;14.43;12.93;;;6.90;99.90;;;;;;5082996;28;20209;-79
2021/03/04 04:06:21;;;;;;;16.97;15.17;;;6.90;99.90;;;;;;5091425;28;20205;-79
2021/03/04 04:08:48;;;;;;;18.20;14.00;;;6.80;99.90;;;;;;5092483;28;20213;-79
2021/03/04 04:11:15;;;;;;;17.13;14.50;;;6.80;99.90;;;;;;5083728;28;20225;-80
2021/03/04 04:13:41;;;;;;;16.43;14.37;;;6.80;99.90;;;;;;5091772;28;20197;-80
2021/03/04 04:16:08;;;;;;;16.40;14.80;;;6.80;99.90;;;;;;5105868;28;20198;-78
2021/03/04 04:18:35;;;;;;;15.60;14.00;;;6.80;99.90;;;;;;5092479;28;20193;-79
2021/03/04 04:21:01;;;;;;;17.10;15.00;;;6.70;99.90;;;;;;5085374;28;20218;-81
2021/03/04 04:23:28;;;;;;;17.13;13.60;;;6.70;99.90;;;;;;5110756;28;20565;-80
2021/03/04 04:25:56;;;;;;;14.97;11.27;;;6.70;99.90;;;;;;5085048;28;20241;-79
2021/03/04 04:28:22;;;;;;;15.47;11.37;;;6.60;99.90;;;;;;5106001;28;20595;-80
2021/03/04 04:30:48;;;;;;;18.10;12.20;;;6.60;99.90;;;;;;5085548;28;20198;-82
2021/03/04 04:33:16;;;;;;;16.83;12.03;;;6.60;99.90;;;;;;5106128;28;20200;-81
2021/03/04 04:35:42;;;;;;;15.07;11.37;;;6.50;99.90;;;;;;5083453;28;20189;-81
2021/03/04 04:38:09;;;;;;;16.30;14.60;;;6.50;99.90;;;;;;5074936;28;20725;-82
2021/03/04 04:40:35;;;;;;;18.83;16.30;;;6.40;99.90;;;;;;5080871;28;20218;-81
2021/03/04 04:43:03;;;;;;;16.47;14.77;;;6.40;99.90;;;;;;5097896;28;20579;-81
2021/03/04 04:45:29;;;;;;;19.40;17.43;;;6.40;99.90;;;;;;5076470;28;20245;-82
2021/03/04 04:47:56;;;;;;;17.20;15.13;;;6.30;99.90;;;;;;5088743;28;20218;-81
2021/03/04 04:50:22;;;;;;;16.67;14.77;;;6.30;99.90;;;;;;5105637;28;20221;-80
2021/03/04 04:52:49;;;;;;;16.67;14.97;;;6.30;99.90;;;;;;5085756;28;20222;-81
2021/03/04 04:55:15;;;;;;;17.10;15.30;;;6.30;99.90;;;;;;5105927;28;20684;-82
2021/03/04 04:57:42;;;;;;;15.70;14.10;;;6.30;99.90;;;;;;5084088;28;20190;-81
2021/03/04 05:00:11;;;;;;;17.77;14.97;;;6.30;99.90;;;;;;5072744;28;20206;-82
2021/03/04 05:02:37;;;;;;;19.30;16.20;;;6.30;99.90;;;;;;5081582;28;20215;-82
2021/03/04 05:05:05;;;;;;;22.63;17.60;;;6.30;99.90;;;;;;5080722;28;20198;-81
2021/03/04 05:07:31;;;;;;;18.07;15.97;;;6.30;99.90;;;;;;5084760;28;20210;-81
2021/03/04 05:09:57;;;;;;;21.47;16.87;;;6.30;99.90;;;;;;5084004;28;20216;-82
2021/03/04 05:12:24;;;;;;;16.23;14.53;;;6.30;99.90;;;;;;5103196;28;20229;-81
2021/03/04 05:14:51;;;;;;;18.20;16.10;;;6.30;99.90;;;;;;5078936;28;20665;-81
2021/03/04 05:17:19;;;;;;;21.20;16.83;;;6.30;99.90;;;;;;5104239;28;20186;-81
2021/03/04 05:19:45;;;;;;;18.83;16.60;;;6.30;99.90;;;;;;5080087;28;20210;-81
2021/03/04 05:22:12;;;;;;;22.87;16.90;;;6.30;99.90;;;;;;5108447;28;20220;-80
2021/03/04 05:24:38;;;;;;;22.87;17.63;;;6.30;99.90;;;;;;5102705;28;20191;-82
2021/03/04 05:27:05;;;;;;;20.83;16.40;;;6.40;99.90;;;;;;5102859;28;20186;-82
2021/03/04 05:29:31;;;;;;;18.67;15.13;;;6.30;99.90;;;;;;5083923;28;20194;-82
2021/03/04 05:31:58;;;;;;;17.10;15.43;;;6.40;99.90;;;;;;5087496;28;20271;-81
2021/03/04 05:34:25;;;;;;;16.57;14.77;;;6.40;99.90;;;;;;5101525;28;20201;-81
2021/03/04 05:36:52;;;;;;;17.17;15.20;;;6.40;99.90;;;;;;5084718;28;20244;-81
2021/03/04 05:39:18;;;;;;;17.47;15.27;;;6.40;99.90;;;;;;5104417;28;20182;-82
2021/03/04 05:41:45;;;;;;;19.93;16.03;;;6.40;99.90;;;;;;5102397;28;20221;-81
2021/03/04 05:44:11;;;;;;;17.93;14.87;;;6.50;99.90;;;;;;5101745;28;20190;-81
2021/03/04 05:46:39;;;;;;;16.10;14.40;;;6.40;99.90;;;;;;5081683;28;20266;-82
2021/03/04 05:49:10;;;;;;;20.20;16.53;;;6.40;99.90;;;;;;5097073;28;20210;-81
2021/03/04 05:51:39;;;;;;;22.03;18.03;;;6.30;99.90;;;;;;5088352;28;20685;-82
2021/03/04 05:54:06;;;;;;;18.93;16.90;;;6.30;99.90;;;;;;5101466;28;20205;-81
2021/03/04 05:56:34;;;;;;;22.60;18.87;;;6.30;99.90;;;;;;5104527;28;20182;-81
2021/03/04 05:59:01;;;;;;;21.80;17.73;;;6.20;99.90;;;;;;5101673;28;20178;-81
2021/03/04 06:01:29;;;;;;;20.53;17.50;;;6.20;99.90;;;;;;5082045;28;20232;-81
2021/03/04 06:03:55;;;;;;;24.23;16.80;;;6.10;99.90;;;;;;5079542;28;20201;-82
2021/03/04 06:06:22;;;;;;;18.00;15.87;;;6.10;99.90;;;;;;5105392;28;20209;-81
2021/03/04 06:08:49;;;;;;;23.43;17.90;;;6.10;99.90;;;;;;5083235;28;20229;-81
2021/03/04 06:11:15;;;;;;;26.67;19.23;;;6.00;99.90;;;;;;5098910;28;20205;-82
2021/03/04 06:13:42;;;;;;;28.67;19.50;;;6.00;99.90;;;;;;5101367;28;20186;-82
2021/03/04 06:16:09;;;;;;;26.07;18.87;;;6.00;99.90;;;;;;5084037;28;20197;-81
2021/03/04 06:18:40;;;;;;;21.13;16.80;;;6.10;99.90;;;;;;5105599;28;20185;-81
2021/03/04 06:21:18;;;;;;;17.20;15.40;;;6.10;99.90;;;;;;5079373;28;20324;-81
2021/03/04 06:23:44;;;;;;;17.10;15.30;;;6.10;99.90;;;;;;5104806;28;20204;-82
2021/03/04 06:26:21;;;;;;;18.43;15.57;;;6.20;99.90;;;;;;5070141;28;20191;-82
2021/03/04 06:28:48;;;;;;;20.37;16.03;;;6.20;99.90;;;;;;5062587;28;20218;-82
2021/03/04 06:31:18;;;;;;;19.23;15.23;;;6.20;99.90;;;;;;5101276;28;20209;-81
2021/03/04 06:33:44;;;;;;;18.53;15.57;;;6.20;99.90;;;;;;5082924;28;20217;-82
2021/03/04 06:36:15;;;;;;;21.37;16.77;;;6.20;99.90;;;;;;5083386;28;20194;-81
2021/03/04 06:38:41;;;;;;;23.47;18.80;;;6.20;99.90;;;;;;5071721;28;20197;-82
2021/03/04 06:41:19;;;;;;;22.43;17.23;;;6.20;99.90;;;;;;5082306;28;20217;-81
2021/03/04 06:43:46;;;;;;;22.10;16.70;;;6.20;99.90;;;;;;5080720;28;20661;-81
2021/03/04 06:46:13;;;;;;;20.23;16.43;;;6.30;99.90;;;;;;5098720;28;20694;-81
2021/03/04 06:48:51;;;;;;;20.90;17.20;;;6.30;99.90;;;;;;5104454;28;20205;-82
2021/03/04 06:51:17;;;;;;;20.63;16.93;;;6.30;99.90;;;;;;5085950;28;20665;-81
2021/03/04 06:53:50;;;;;;;18.07;16.10;;;6.40;99.90;;;;;;5104344;28;20615;-82
2021/03/04 06:56:28;;;;;;;17.23;14.97;;;6.40;99.90;;;;;;5080470;28;20288;-82
2021/03/04 06:58:59;;;;;;;18.27;14.90;;;6.50;99.90;;;;;;5102649;28;20193;-82
2021/03/04 07:01:26;;;;;;;18.97;16.20;;;6.50;99.90;;;;;;5086680;28;20233;-82
2021/03/04 07:03:54;;;;;;;17.93;14.60;;;6.50;99.90;;;;;;5100450;28;20205;-81
2021/03/04 07:06:21;;;;;;;15.80;14.10;;;6.60;99.90;;;;;;5079084;28;20210;-82
2021/03/04 07:08:49;;;;;;;15.13;13.30;;;6.60;99.90;;;;;;5106767;28;20224;-82
2021/03/04 07:11:18;;;;;;;16.90;14.67;;;6.70;99.90;;;;;;5080779;28;20218;-82
2021/03/04 07:13:45;;;;;;;15.07;13.47;;;6.70;99.90;;;;;;5099516;28;20197;-82
2021/03/04 07:16:17;;;;;;;16.80;14.13;;;6.70;99.90;;;;;;5100578;28;20206;-82
2021/03/04 07:18:45;;;;;;;15.70;14.10;;;6.80;99.90;;;;;;5082263;28;20190;-81
2021/03/04 07:21:13;;;;;;;15.97;14.27;;;6.90;99.90;;;;;;5084511;28;20221;-81
2021/03/04 07:23:42;;;;;;;14.87;13.37;;;7.00;99.90;;;;;;5103170;28;20198;-81
2021/03/04 07:26:10;;;;;;;15.97;14.33;;;7.20;99.90;;;;;;5084930;28;20194;-82
2021/03/04 07:28:39;;;;;;;17.10;15.30;;;7.50;99.90;;;;;;5098719;28;20205;-82
2021/03/04 07:31:07;;;;;;;17.60;15.47;;;7.70;99.90;;;;;;5097726;28;20734;-82
2021/03/04 07:33:35;;;;;;;19.97;15.70;;;8.00;99.90;;;;;;5082889;28;20203;-82
2021/03/04 07:36:05;;;;;;;16.43;14.73;;;8.20;99.90;;;;;;5081609;28;20257;-81
2021/03/04 07:38:33;;;;;;;15.97;14.27;;;8.40;99.90;;;;;;5098453;28;20291;-82
2021/03/04 07:41:10;;;;;;;13.73;12.33;;;8.60;99.90;;;;;;5100047;28;20291;-82
2021/03/04 07:43:47;;;;;;;15.03;12.40;;;8.70;99.90;;;;;;5095691;28;20196;-82
2021/03/04 07:46:26;;;;;;;17.23;12.87;;;8.70;99.90;;;;;;5083084;28;20205;-82
2021/03/04 07:48:52;;;;;;;17.07;14.10;;;8.70;99.90;;;;;;5103543;28;20219;-82
2021/03/04 07:51:19;;;;;;;15.00;13.00;;;8.80;99.90;;;;;;5097686;28;20273;-83
2021/03/04 07:53:47;;;;;;;14.93;13.23;;;9.00;99.90;;;;;;5077866;28;20197;-82
2021/03/04 07:56:24;;;;;;;15.97;14.10;;;9.20;99.90;;;;;;5098361;28;20672;-82
2021/03/04 07:58:51;;;;;;;15.00;13.50;;;9.10;99.90;;;;;;5078747;28;20193;-82
2021/03/04 08:01:18;;;;;;;14.50;13.07;;;9.10;99.90;;;;;;5104721;28;20216;-83
2021/03/04 08:03:49;;;;;;;15.67;13.33;;;9.20;99.90;;;;;;5084795;28;20211;-82
2021/03/04 08:06:15;;;;;;;14.93;13.33;;;9.60;99.90;;;;;;5100376;28;20189;-82
2021/03/04 08:08:44;;;;;;;15.77;14.10;;;10.10;99.90;;;;;;5090596;28;20217;-82
2021/03/04 08:11:10;;;;;;;15.60;14.10;;;10.50;99.90;;;;;;5083629;28;20291;-82
2021/03/04 08:13:38;;;;;;;16.30;14.70;;;10.90;99.90;;;;;;5106089;28;20238;-82
2021/03/04 08:16:13;;;;;;;15.40;13.73;;;11.20;99.90;;;;;;5086507;28;20614;-83
2021/03/04 08:18:41;;;;;;;12.60;8.60;;;11.70;99.90;;;;;;5079525;28;20571;-83
2021/03/04 08:21:09;;;;;;;14.00;12.60;;;12.00;99.90;;;;;;5087074;28;20220;-83
2021/03/04 08:23:41;;;;;;;15.83;13.83;;;12.40;99.90;;;;;;5082659;28;20668;-83
2021/03/04 08:26:09;;;;;;;15.10;13.13;;;12.70;99.90;;;;;;5073420;28;20695;-83
2021/03/04 08:28:35;;;;;;;15.70;13.67;;;13.10;99.90;;;;;;5085135;28;20697;-83
2021/03/04 08:31:06;;;;;;;14.33;10.27;;;13.40;99.90;;;;;;5098460;28;20574;-83
2021/03/04 08:33:33;;;;;;;13.83;12.00;;;13.80;99.90;;;;;;5084954;28;20203;-82
2021/03/04 08:36:01;;;;;;;15.33;13.73;;;14.00;99.90;;;;;;5078236;28;20198;-83
2021/03/04 08:38:37;;;;;;;14.30;12.80;;;14.20;99.90;;;;;;5105861;28;20281;-83
2021/03/04 08:41:03;;;;;;;15.00;13.50;;;14.50;99.90;;;;;;5087194;28;20578;-82
2021/03/04 08:43:30;;;;;;;14.63;12.60;;;14.70;99.90;;;;;;5079942;28;20569;-83
2021/03/04 08:45:58;;;;;;;13.87;12.37;;;14.80;99.90;;;;;;5086394;28;20634;-83
2021/03/04 08:48:25;;;;;;;12.57;8.07;;;15.10;99.90;;;;;;5090878;28;20221;-83
2021/03/04 08:50:54;;;;;;;11.27;9.10;;;15.20;99.90;;;;;;5106204;28;20219;-83
2021/03/04 08:53:22;;;;;;;11.03;7.80;;;15.40;99.90;;;;;;5101078;28;20194;-83
2021/03/04 08:55:49;;;;;;;14.20;12.80;;;15.50;99.90;;;;;;5077813;28;20199;-83
2021/03/04 08:58:16;;;;;;;16.77;13.33;;;15.60;99.90;;;;;;5085135;28;20192;-84
2021/03/04 09:00:49;;;;;;;15.93;13.30;;;15.70;99.90;;;;;;5090240;28;20216;-83
2021/03/04 09:03:16;;;;;;;14.97;9.83;;;15.60;99.90;;;;;;5086286;28;20680;-83
2021/03/04 09:05:43;;;;;;;13.00;9.20;;;15.60;99.90;;;;;;5084751;28;20216;-83
2021/03/04 09:08:12;;;;;;;12.57;8.73;;;15.80;99.90;;;;;;5087811;28;20281;-83
2021/03/04 09:10:40;;;;;;;15.63;12.33;;;15.90;99.90;;;;;;5101490;28;20196;-83
2021/03/04 09:13:07;;;;;;;13.13;9.60;;;16.10;99.90;;;;;;5099792;28;20250;-83
2021/03/04 09:15:34;;;;;;;13.70;9.87;;;16.20;99.90;;;;;;5102572;28;20197;-83
2021/03/04 09:18:07;;;;;;;11.63;8.40;;;16.40;99.70;;;;;;5102597;28;20183;-83
2021/03/04 09:20:33;;;;;;;13.70;11.23;;;16.60;99.40;;;;;;5093579;28;20195;-82
2021/03/04 09:23:00;;;;;;;15.30;11.93;;;16.80;98.40;;;;;;5084385;28;20197;-83
2021/03/04 09:25:27;;;;;;;13.77;12.47;;;16.80;97.60;;;;;;5086233;28;20198;-83
2021/03/04 09:27:56;;;;;;;17.00;14.13;;;16.80;98.40;;;;;;5103426;28;20222;-83
2021/03/04 09:30:27;;;;;;;17.13;13.03;;;16.70;99.50;;;;;;5081082;28;20203;-82
2021/03/04 09:32:55;;;;;;;14.40;12.70;;;16.50;98.70;;;;;;5099797;28;20225;-83
2021/03/04 09:35:21;;;;;;;15.23;13.70;;;16.60;98.90;;;;;;5103259;28;20186;-83
2021/03/04 09:37:48;;;;;;;14.60;13.03;;;16.50;98.40;;;;;;5084722;28;20187;-83
2021/03/04 09:40:25;;;;;;;14.33;12.93;;;16.60;98.10;;;;;;5084945;28;20207;-83
2021/03/04 09:42:53;;;;;;;14.93;12.93;;;16.70;97.60;;;;;;5080106;28;20219;-83
2021/03/04 09:45:19;;;;;;;14.00;12.50;;;16.70;97.40;;;;;;5087268;28;20694;-82
2021/03/04 09:47:47;;;;;;;15.30;13.27;;;16.60;96.90;;;;;;5102500;28;20204;-83
2021/03/04 09:50:20;;;;;;;14.67;13.23;;;16.50;96.90;;;;;;5082049;28;20204;-83
2021/03/04 09:52:57;;;;;;;14.70;13.17;;;16.50;97.70;;;;;;5101827;28;20381;-84
2021/03/04 09:55:23;;;;;;;14.77;12.17;;;16.60;97.00;;;;;;5084834;28;20197;-83
2021/03/04 09:57:49;;;;;;;15.67;12.20;;;16.60;96.20;;;;;;5084690;28;20239;-83
2021/03/04 10:00:26;;;;;;;16.37;12.30;;;16.60;96.30;;;;;;5085592;28;20195;-84
2021/03/04 10:02:54;;;;;;;13.73;11.67;;;16.50;95.70;;;;;;5083589;28;20240;-84
2021/03/04 10:05:22;;;;;;;15.27;12.03;;;16.50;95.50;;;;;;5104654;28;20200;-83
2021/03/04 10:07:49;;;;;;;13.70;11.63;;;16.50;95.80;;;;;;5089791;28;20276;-83
2021/03/04 10:10:17;;;;;;;12.67;10.57;;;16.40;95.40;;;;;;5076360;28;20204;-83
2021/03/04 10:12:48;;;;;;;12.53;10.93;;;16.50;95.40;;;;;;5083899;28;20216;-83
2021/03/04 10:15:24;;;;;;;11.27;10.17;;;16.50;95.00;;;;;;5085200;28;20225;-83
2021/03/04 10:17:51;;;;;;;11.80;10.33;;;16.50;95.20;;;;;;5083243;28;20201;-84
2021/03/04 10:20:18;;;;;;;14.37;10.80;;;16.60;95.10;;;;;;5080647;28;20222;-83
2021/03/04 10:22:44;;;;;;;12.77;11.47;;;16.50;94.80;;;;;;5085237;28;20739;-83
2021/03/04 10:25:12;;;;;;;13.43;11.10;;;16.40;94.70;;;;;;5082641;28;20192;-83
2021/03/04 10:27:38;;;;;;;11.67;10.23;;;16.20;94.60;;;;;;5103857;28;20197;-82
2021/03/04 10:30:07;;;;;;;11.97;8.20;;;16.10;95.00;;;;;;5085522;28;20259;-83
2021/03/04 10:32:34;;;;;;;10.50;8.57;;;16.10;95.30;;;;;;5103409;28;20212;-82
2021/03/04 10:35:01;;;;;;;15.73;8.90;;;16.00;95.10;;;;;;5086230;28;20203;-83
2021/03/04 10:37:27;;;;;;;14.17;6.97;;;15.90;95.10;;;;;;5079503;28;20203;-83
2021/03/04 10:39:53;;;;;;;11.50;6.53;;;15.80;95.10;;;;;;5074858;28;20186;-82
2021/03/04 10:42:20;;;;;;;9.33;6.43;;;15.70;95.40;;;;;;5103004;28;20218;-82
2021/03/04 10:44:46;;;;;;;11.17;6.10;;;15.70;95.20;;;;;;5103653;28;20193;-83
2021/03/04 10:47:12;;;;;;;12.73;6.63;;;15.70;95.80;;;;;;5092670;28;20197;-83
2021/03/04 10:49:39;;;;;;;9.40;6.43;;;15.80;95.20;;;;;;5088569;28;20217;-83
2021/03/04 10:52:06;;;;;;;11.93;7.10;;;15.80;95.50;;;;;;5083802;28;20218;-83
2021/03/04 10:54:32;;;;;;;12.80;6.83;;;15.70;95.50;;;;;;5083895;28;20213;-83
2021/03/04 10:56:59;;;;;;;14.80;7.37;;;15.50;95.90;;;;;;5104826;28;20193;-83
2021/03/04 10:59:25;;;;;;;13.23;7.10;;;15.50;96.30;;;;;;5101154;28;20657;-83
2021/03/04 11:01:51;;;;;;;10.90;6.43;;;15.50;96.30;;;;;;5102191;28;20210;-83
2021/03/04 11:04:17;;;;;;;9.50;6.30;;;15.60;96.60;;;;;;5104073;28;20190;-84
2021/03/04 11:06:44;;;;;;;14.83;6.57;;;15.60;96.40;;;;;;5102291;28;20198;-83
2021/03/04 11:09:11;;;;;;;11.47;6.57;;;15.60;96.10;;;;;;5102964;28;20201;-83
2021/03/04 11:11:37;;;;;;;10.53;5.73;;;15.60;95.80;;;;;;5084320;28;20254;-83
2021/03/04 11:14:04;;;;;;;11.67;6.27;;;15.60;96.10;;;;;;5088071;28;20193;-83
2021/03/04 11:16:30;;;;;;;11.57;6.37;;;15.60;95.90;;;;;;5078688;28;20213;-83
2021/03/04 11:18:56;;;;;;;8.07;5.30;;;15.60;95.70;;;;;;5083936;28;20194;-83
2021/03/04 11:21:23;;;;;;;12.20;5.87;;;15.60;95.70;;;;;;5085562;28;20603;-83
2021/03/04 11:23:49;;;;;;;10.60;5.93;;;15.50;95.30;;;;;;5102808;28;20190;-83
2021/03/04 11:26:16;;;;;;;12.67;6.80;;;15.50;95.70;;;;;;5103212;28;20189;-83
2021/03/04 11:28:43;;;;;;;11.63;6.70;;;15.50;95.60;;;;;;5098813;28;20289;-82
2021/03/04 11:31:09;;;;;;;11.23;6.67;;;15.50;95.60;;;;;;5105064;28;20212;-83
2021/03/04 11:33:35;;;;;;;14.97;7.80;;;15.50;96.10;;;;;;5080601;28;20196;-83
2021/03/04 11:36:02;;;;;;;8.93;6.20;;;15.50;96.40;;;;;;5090423;28;20193;-83
2021/03/04 11:38:28;;;;;;;9.73;6.60;;;15.50;95.90;;;;;;5093024;28;20570;-82
2021/03/04 11:40:54;;;;;;;9.87;6.40;;;15.50;96.00;;;;;;5118648;28;20265;-83
2021/03/04 11:43:21;;;;;;;10.00;6.13;;;15.50;95.90;;;;;;5093359;28;20247;-83
2021/03/04 11:45:48;;;;;;;12.57;6.93;;;15.50;95.90;;;;;;5086904;28;20190;-83
2021/03/04 11:48:15;;;;;;;10.80;6.93;;;15.50;95.90;;;;;;5086279;28;20210;-83
2021/03/04 11:50:41;;;;;;;11.23;6.53;;;15.50;95.70;;;;;;5085672;28;20193;-83
2021/03/04 11:53:07;;;;;;;10.30;6.30;;;15.50;95.30;;;;;;5087406;28;20198;-83
2021/03/04 11:55:34;;;;;;;13.97;6.20;;;15.50;95.50;;;;;;5089570;28;20549;-83
2021/03/04 11:58:00;;;;;;;9.17;5.27;;;15.70;95.70;;;;;;5107393;28;20189;-83
2021/03/04 12:00:27;;;;;;;11.13;6.50;;;15.80;95.70;;;;;;5102175;28;20197;-83
2021/03/04 12:02:54;;;;;;;10.33;5.90;;;15.90;95.30;;;;;;5103444;28;20216;-83
2021/03/04 12:05:20;;;;;;;10.93;5.63;;;15.90;95.20;;;;;;5087671;28;20198;-83
2021/03/04 12:07:47;;;;;;;9.27;5.60;;;16.10;95.40;;;;;;5103682;28;20200;-83
2021/03/04 12:10:14;;;;;;;9.70;6.30;;;16.30;95.20;;;;;;5086491;28;20204;-82
2021/03/04 12:12:41;;;;;;;14.00;6.80;;;16.40;94.90;;;;;;5083073;28;20264;-83
2021/03/04 12:15:08;;;;;;;9.77;6.10;;;16.50;94.80;;;;;;5106789;28;20228;-84
2021/03/04 12:17:36;;;;;;;9.50;6.07;;;16.50;94.70;;;;;;5104722;28;20187;-83
2021/03/04 12:20:03;;;;;;;11.57;6.43;;;16.50;94.70;;;;;;5084890;28;20187;-83
2021/03/04 12:22:30;;;;;;;10.87;7.03;;;16.40;94.70;;;;;;5076867;28;20719;-82
2021/03/04 12:24:56;;;;;;;14.00;6.87;;;16.40;94.70;;;;;;5084500;28;20238;-83
2021/03/04 12:27:22;;;;;;;8.57;6.07;;;16.40;94.90;;;;;;5080067;28;20205;-83
2021/03/04 12:29:49;;;;;;;8.80;6.53;;;16.40;95.00;;;;;;5084671;28;20214;-83
2021/03/04 12:32:16;;;;;;;13.03;10.23;;;16.30;95.10;;;;;;5106930;28;20219;-83
2021/03/04 12:34:43;;;;;;;14.30;7.57;;;16.30;95.10;;;;;;5106566;28;20202;-83
2021/03/04 12:37:09;;;;;;;11.13;8.77;;;16.20;95.20;;;;;;5083041;28;20260;-83
2021/03/04 12:39:36;;;;;;;11.43;8.30;;;16.10;95.20;;;;;;5086223;28;20194;-83
2021/03/04 12:42:02;;;;;;;9.73;8.70;;;16.10;95.30;;;;;;5084796;28;20588;-83